METAR AND TAF INFORMATION
METAR FOR LCLK
ADDS - METARS form results

(1404 UTC 20 April 2018)
Data provider http://aviationweather.gov/adds/metars/
 
METAR text: LCLK 201400Z 22021KT 8000 FEW005 SCT050 23/15 Q1004 NOSIG
Conditions at: LCLK (LARNACA/LARNAX A, CY) observed 1400 UTC 20 April 2018
Temperature: 23.0°C (73°F)
Dewpoint: 15.0°C (59°F) [RH = 61%]
Pressure (altimeter): 29.65 inches Hg (1004.0 mb)
Winds: from the SW (220 degrees) at 24 MPH (21 knots; 10.9 m/s)
Visibility: 5 miles (8 km)
Ceiling: at least 12,000 feet AGL
Clouds: few clouds at 500 feet AGL
scattered clouds at 5000 feet AGL
Weather: no significant weather observed at this time

METAR text: LCLK 201330Z 23020KT 8000 FEW030 SCT050 23/15 Q1004 NOSIG
Conditions at: LCLK (LARNACA/LARNAX A, CY) observed 1330 UTC 20 April 2018
Temperature: 23.0°C (73°F)
Dewpoint: 15.0°C (59°F) [RH = 61%]
Pressure (altimeter): 29.65 inches Hg (1004.0 mb)
Winds: from the SW (230 degrees) at 23 MPH (20 knots; 10.4 m/s)
Visibility: 5 miles (8 km)
Ceiling: at least 12,000 feet AGL
Clouds: few clouds at 3000 feet AGL
scattered clouds at 5000 feet AGL
Weather: no significant weather observed at this time

Forecast for: LCLK (LARNACA/LARNAX A, CY)
Text: TAF LCLK 201130Z 2012/2112 22023G33KT 9999 SCT025
Forecast period: 1200 to 1600 UTC 20 April 2018
Forecast type: FROM: standard forecast or significant change
Winds: from the SW (220 degrees) at 26 MPH (23 knots; 12.0 m/s)
gusting to 38 MPH (33 knots; 17.2 m/s)
Visibility: 6 or more miles (10+ km)
Clouds: scattered clouds at 2500 feet AGL
Weather: no significant weather forecast for this period
Forecast for: LCLK (LARNACA/LARNAX A, CY)
Text: TAF LCLK 201130Z 2012/2112 22023G33KT 9999 SCT025
Forecast period: 1200 to 1600 UTC 20 April 2018
Forecast type: FROM: standard forecast or significant change
Winds: from the SW (220 degrees) at 26 MPH (23 knots; 12.0 m/s)
gusting to 38 MPH (33 knots; 17.2 m/s)
Visibility: 6 or more miles (10+ km)
Clouds: scattered clouds at 2500 feet AGL
Weather: no significant weather forecast for this period
Forecast for: LCLK (LARNACA/LARNAX A, CY)
Text: TAF LCLK 201130Z 2012/2112 22023G33KT 9999 SCT025
Forecast period: 1600 to 2100 UTC 20 April 2018
Forecast type: BECOMING: Conditions expected to become as follows by 1900 UTC 20 April 2018
Winds: from the WSW (240 degrees) at 10 MPH (9 knots; 4.7 m/s)
Visibility: 6 or more miles (10+ km)
Clouds: scattered clouds at 2500 feet AGL
Weather: no significant weather forecast for this period
Forecast for: LCLK (LARNACA/LARNAX A, CY)
Text: TAF LCLK 201130Z 2012/2112 22023G33KT 9999 SCT025
Forecast period: 1600 to 2100 UTC 20 April 2018
Forecast type: BECOMING: Conditions expected to become as follows by 1900 UTC 20 April 2018
Winds: from the WSW (240 degrees) at 10 MPH (9 knots; 4.7 m/s)
Visibility: 6 or more miles (10+ km)
Clouds: scattered clouds at 2500 feet AGL
Weather: no significant weather forecast for this period
Forecast for: LCLK (LARNACA/LARNAX A, CY)
Text: TAF LCLK 201130Z 2012/2112 22023G33KT 9999 SCT025
Forecast period: 2100 UTC 20 April 2018 to 0700 UTC 21 April 2018
Forecast type: BECOMING: Conditions expected to become as follows by 0000 UTC 21 April 2018
Winds: from the NNW (330 degrees) at 9 MPH (8 knots; 4.2 m/s)
Visibility: 6 or more miles (10+ km)
Clouds: scattered clouds at 2500 feet AGL
Weather: no significant weather forecast for this period
Forecast for: LCLK (LARNACA/LARNAX A, CY)
Text: TAF LCLK 201130Z 2012/2112 22023G33KT 9999 SCT025
Forecast period: 2100 UTC 20 April 2018 to 0700 UTC 21 April 2018
Forecast type: BECOMING: Conditions expected to become as follows by 0000 UTC 21 April 2018
Winds: from the NNW (330 degrees) at 9 MPH (8 knots; 4.2 m/s)
Visibility: 6 or more miles (10+ km)
Clouds: scattered clouds at 2500 feet AGL
Weather: no significant weather forecast for this period
Forecast for: LCLK (LARNACA/LARNAX A, CY)
Text: TAF LCLK 201130Z 2012/2112 22023G33KT 9999 SCT025
Forecast period: 0700 to 1000 UTC 21 April 2018
Forecast type: BECOMING: Conditions expected to become as follows by 1000 UTC 21 April 2018
Winds: from the NE (40 degrees) at 14 MPH (12 knots; 6.2 m/s)
Visibility: 6 or more miles (10+ km)
Clouds: scattered clouds at 2500 feet AGL
Weather: no significant weather forecast for this period
Forecast for: LCLK (LARNACA/LARNAX A, CY)
Text: TAF LCLK 201130Z 2012/2112 22023G33KT 9999 SCT025
Forecast period: 0700 to 1000 UTC 21 April 2018
Forecast type: BECOMING: Conditions expected to become as follows by 1000 UTC 21 April 2018
Winds: from the NE (40 degrees) at 14 MPH (12 knots; 6.2 m/s)
Visibility: 6 or more miles (10+ km)
Clouds: scattered clouds at 2500 feet AGL
Weather: no significant weather forecast for this period
Forecast for: LCLK (LARNACA/LARNAX A, CY)
Text: TAF LCLK 201130Z 2012/2112 22023G33KT 9999 SCT025
Forecast period: 1000 to 1200 UTC 21 April 2018
Forecast type: BECOMING: Conditions expected to become as follows by 1200 UTC 21 April 2018
Winds: from the ESE (120 degrees) at 10 MPH (9 knots; 4.7 m/s)
Visibility: 6 or more miles (10+ km)
Clouds: scattered clouds at 2500 feet AGL
Weather: no significant weather forecast for this period
Forecast for: LCLK (LARNACA/LARNAX A, CY)
Text: TAF LCLK 201130Z 2012/2112 22023G33KT 9999 SCT025
Forecast period: 1000 to 1200 UTC 21 April 2018
Forecast type: BECOMING: Conditions expected to become as follows by 1200 UTC 21 April 2018
Winds: from the ESE (120 degrees) at 10 MPH (9 knots; 4.7 m/s)
Visibility: 6 or more miles (10+ km)
Clouds: scattered clouds at 2500 feet AGL
Weather: no significant weather forecast for this period
Forecast for: LCLK (LARNACA/LARNAX A, CY)
Text: TAF LCLK 201130Z 2012/2112 22023G33KT 9999 SCT025
Forecast period: 1000 to 1200 UTC 21 April 2018
Forecast type: TEMPORARY: The following changes expected for less than half the time period
Winds: variable direction winds at 21 MPH (18 knots; 9.4 m/s)
gusting to 34 MPH (30 knots; 15.6 m/s)
Visibility: 2.49 miles (4.01 km)
Clouds: scattered clouds at 2200 feet AGL
Weather: SHRA TSRA  (rain showers, rain associated with thunderstorm(s))
Forecast for: LCLK (LARNACA/LARNAX A, CY)
Text: TAF LCLK 201130Z 2012/2112 22023G33KT 9999 SCT025
Forecast period: 1000 to 1200 UTC 21 April 2018
Forecast type: TEMPORARY: The following changes expected for less than half the time period
Winds: variable direction winds at 21 MPH (18 knots; 9.4 m/s)
gusting to 34 MPH (30 knots; 15.6 m/s)
Visibility: 2.49 miles (4.01 km)
Clouds: scattered clouds at 2200 feet AGL
Weather: SHRA TSRA  (rain showers, rain associated with thunderstorm(s))

 AIRPORT MAP

 RUNWAY INFORMATION
Runway 04 Runway length 9776 ft Runway width 148 ft
Runway elevation 11 ft Runway displaced threshold 0 ft Runway heading 45
Runway 22 Runway length 9776 ft Runway width 148 ft
Runway elevation 6 ft Runway displaced threshold 575 ft Runway heading 225

 AIRPORT FREQUENCIES
Type APP Name APP Frequency 121.2 MHZ
Type ATIS Name ATIS Frequency 126.55 MHZ
Type TWR Name TWR Frequency 119.4 MHZ

 AIRPORT NEAR NAVIGATION AIDS
Type VOR-DME Name Larnaca Frequency 112800 KHZ
Type NDB Name Larnaca Frequency 432 KHZ



Powered by Virtual Airlines Manager [v2.6.2]